Time;durP1;ratioP1;P1;durP2;ratioP2;P2;SDS_P1;SDS_P2;PMS_P1;PMS_P2;Temp;Humidity;BMP_temperature;BMP_pressure;BME280_temperature;BME280_humidity;BME280_pressure;Samples;Min_cycle;Max_cycle;Signal;HPM_P1;HPM_P2
2022/03/22 00:00:03;;;;;;;39.90;20.00;;;;;;;5.98;65.67;100850.69;4968364;28;20057;-53
2022/03/22 00:02:28;;;;;;;41.97;21.33;;;;;;;5.95;67.00;100850.22;4959935;28;20042;-51
2022/03/22 00:04:54;;;;;;;48.03;23.95;;;;;;;6.00;69.51;100846.03;4962949;28;20054;-50
2022/03/22 00:07:19;;;;;;;33.88;18.77;;;;;;;6.04;66.74;100846.50;4968186;28;20054;-52
2022/03/22 00:09:45;;;;;;;43.45;21.92;;;;;;;5.99;65.61;100846.19;4967761;28;20035;-52
2022/03/22 00:12:10;;;;;;;43.42;23.02;;;;;;;5.95;67.95;100850.22;4968844;28;20053;-50
2022/03/22 00:14:36;;;;;;;42.80;22.70;;;;;;;5.84;69.48;100854.88;4968855;28;20031;-52
2022/03/22 00:17:04;;;;;;;46.70;24.00;;;;;;;5.61;69.46;100853.94;4967479;28;20077;-53
2022/03/22 00:19:29;;;;;;;39.08;20.27;;;;;;;5.44;69.68;100852.31;4966765;28;20055;-53
2022/03/22 00:21:54;;;;;;;44.20;21.90;;;;;;;5.32;70.52;100852.69;4961387;28;20045;-53
2022/03/22 00:24:20;;;;;;;42.83;21.95;;;;;;;5.24;71.61;100858.03;4960510;28;20054;-50
2022/03/22 00:26:45;;;;;;;42.72;23.27;;;;;;;5.08;71.61;100844.72;4968641;28;20528;-52
2022/03/22 00:29:11;;;;;;;44.90;22.75;;;;;;;5.24;70.49;100852.69;4966609;28;20480;-51
2022/03/22 00:31:36;;;;;;;38.63;20.90;;;;;;;5.24;68.75;100854.50;4959943;28;20050;-50
2022/03/22 00:34:01;;;;;;;41.53;22.85;;;;;;;5.22;69.29;100854.69;4962191;28;20031;-52
2022/03/22 00:36:27;;;;;;;41.38;21.52;;;;;;;5.25;67.96;100857.00;4959956;28;20108;-52
2022/03/22 00:38:52;;;;;;;37.92;20.33;;;;;;;5.31;66.75;100852.84;4968553;28;20043;-53
2022/03/22 00:41:19;;;;;;;35.08;18.95;;;;;;;5.27;65.71;100847.03;4966811;28;20091;-50
2022/03/22 00:43:44;;;;;;;36.03;18.20;;;;;;;5.27;64.71;100846.22;4968774;28;20035;-53
2022/03/22 00:46:10;;;;;;;40.50;19.60;;;;;;;5.36;64.37;100854.00;4962419;28;20461;-52
2022/03/22 00:48:35;;;;;;;30.67;17.52;;;;;;;5.61;68.74;100851.28;4962381;28;20037;-49
2022/03/22 00:51:01;;;;;;;34.30;16.40;;;;;;;5.71;66.88;100851.09;4967421;28;20046;-52
2022/03/22 00:53:26;;;;;;;32.22;17.65;;;;;;;5.67;68.85;100849.78;4968411;28;20034;-49
2022/03/22 00:55:52;;;;;;;32.33;17.20;;;;;;;5.57;65.00;100852.63;4968013;28;20552;-52
2022/03/22 00:58:17;;;;;;;32.42;16.85;;;;;;;5.74;68.48;100851.59;4958353;28;20038;-51
2022/03/22 01:00:43;;;;;;;33.38;17.13;;;;;;;5.93;65.97;100852.19;4962428;28;20405;-50
2022/03/22 01:03:09;;;;;;;34.50;18.55;;;;;;;5.91;62.35;100849.69;4967983;28;20484;-51
2022/03/22 01:05:35;;;;;;;31.08;17.23;;;;;;;5.94;65.92;100853.88;4965907;28;20050;-51
2022/03/22 01:08:08;;;;;;;32.70;18.05;;;;;;;5.63;61.87;100852.78;4957157;28;20644;-51
2022/03/22 01:10:35;;;;;;;29.52;17.02;;;;;;;5.28;62.36;100845.22;4968212;28;20046;-53
2022/03/22 01:13:01;;;;;;;31.45;17.85;;;;;;;5.09;65.19;100849.88;4956735;28;20035;-51
2022/03/22 01:15:32;;;;;;;28.77;18.10;;;;;;;4.90;65.78;100848.38;4956289;28;20046;-52
2022/03/22 01:17:58;;;;;;;33.97;18.30;;;;;;;4.73;67.41;100849.38;4957303;28;20485;-53
2022/03/22 01:20:26;;;;;;;37.08;19.33;;;;;;;4.59;68.44;100852.66;4961083;28;20047;-52
2022/03/22 01:22:51;;;;;;;36.30;19.40;;;;;;;4.53;73.79;100849.66;4963642;28;20077;-49
2022/03/22 01:25:20;;;;;;;36.58;19.48;;;;;;;4.18;69.41;100849.91;4962123;28;20050;-52
2022/03/22 01:27:48;;;;;;;30.67;17.17;;;;;;;4.15;68.58;100843.13;4968102;28;20110;-50
2022/03/22 01:30:19;;;;;;;41.70;22.17;;;;;;;4.29;67.95;100845.16;4963090;28;20039;-50
2022/03/22 01:32:45;;;;;;;;;;;;;;;4.38;69.04;100845.16;4964757;28;20018;-53
2022/03/22 01:35:10;;;;;;;47.78;19.15;;;;;;;4.44;70.00;100839.19;4961734;28;20447;-50
2022/03/22 01:37:39;;;;;;;36.92;19.38;;;;;;;4.46;67.29;100838.03;4961520;28;20030;-51
2022/03/22 01:40:07;;;;;;;39.03;20.23;;;;;;;4.44;67.40;100840.03;4967199;28;20496;-50
2022/03/22 01:42:33;;;;;;;35.58;19.42;;;;;;;4.44;69.78;100837.38;4966213;28;20084;-50
2022/03/22 01:44:59;;;;;;;37.33;18.73;;;;;;;4.31;70.04;100844.97;4968135;28;20046;-51
2022/03/22 01:47:24;;;;;;;37.45;20.00;;;;;;;4.23;71.13;100837.00;4966958;28;20034;-50
2022/03/22 01:49:53;;;;;;;41.85;20.42;;;;;;;4.13;70.26;100834.47;4967765;28;20565;-53
2022/03/22 01:52:20;;;;;;;44.78;20.55;;;;;;;4.29;69.33;100839.84;4967368;28;20472;-50
2022/03/22 01:54:46;;;;;;;45.33;21.13;;;;;;;4.30;69.56;100841.50;4966173;28;20059;-50
2022/03/22 01:57:11;;;;;;;40.30;20.92;;;;;;;4.14;69.81;100827.34;4955565;28;20402;-50
2022/03/22 01:59:37;;;;;;;41.03;20.95;;;;;;;4.12;70.16;100827.53;4959846;28;20035;-51
2022/03/22 02:07:34;;;;;;;37.67;17.90;;;;;;;4.19;68.23;100819.72;4958771;28;20528;-52
2022/03/22 02:10:00;;;;;;;31.67;18.13;;;;;;;4.22;67.98;100819.38;4966141;28;20039;-53
2022/03/22 02:12:26;;;;;;;30.13;17.25;;;;;;;4.25;69.60;100813.78;4961299;28;20055;-52
2022/03/22 02:14:52;;;;;;;30.92;17.67;;;;;;;4.25;68.51;100808.47;4966596;28;20037;-53
2022/03/22 02:17:18;;;;;;;33.15;16.85;;;;;;;4.40;70.56;100809.50;4966519;28;20042;-53
2022/03/22 02:19:43;;;;;;;34.03;17.20;;;;;;;4.27;66.37;100812.63;4970699;28;20043;-51
2022/03/22 02:22:11;;;;;;;34.95;18.38;;;;;;;4.18;68.38;100807.47;4965861;28;20516;-50
2022/03/22 02:24:38;;;;;;;32.65;17.35;;;;;;;4.37;68.26;100812.47;4964954;28;20370;-49
2022/03/22 02:27:04;;;;;;;33.30;18.15;;;;;;;4.26;68.81;100813.59;4956725;28;20489;-50
2022/03/22 02:29:29;;;;;;;33.05;17.95;;;;;;;4.15;71.34;100810.44;4971049;28;20049;-51
2022/03/22 02:31:54;;;;;;;28.85;16.63;;;;;;;4.24;71.92;100817.41;4969275;28;20046;-50
2022/03/22 02:34:20;;;;;;;33.85;18.67;;;;;;;4.29;69.90;100815.09;4965477;28;20492;-50
2022/03/22 02:36:46;;;;;;;35.40;19.02;;;;;;;4.37;70.33;100816.94;4970229;28;20493;-51
2022/03/22 02:39:12;;;;;;;32.47;18.17;;;;;;;4.35;70.08;100814.47;4960139;28;20101;-50
2022/03/22 02:41:37;;;;;;;31.83;17.90;;;;;;;4.31;70.79;100808.63;4963475;28;20070;-50
2022/03/22 02:44:03;;;;;;;31.30;17.77;;;;;;;4.43;74.90;100813.66;4971145;28;20031;-50
2022/03/22 02:46:28;;;;;;;37.22;18.15;;;;;;;4.10;69.97;100810.91;4970310;28;20584;-52
2022/03/22 02:48:54;;;;;;;33.15;18.10;;;;;;;4.13;68.13;100815.06;4963923;28;20026;-49
2022/03/22 02:51:20;;;;;;;35.85;17.70;;;;;;;4.02;68.88;100813.53;4968028;28;20485;-51
2022/03/22 02:53:45;;;;;;;35.33;19.25;;;;;;;3.73;71.50;100816.59;4953395;28;20081;-51
2022/03/22 02:56:10;;;;;;;32.05;18.38;;;;;;;3.61;72.93;100816.84;4969044;28;20053;-51
2022/03/22 02:58:36;;;;;;;29.75;16.45;;;;;;;3.74;77.64;100821.72;4966770;28;20039;-51
2022/03/22 03:01:02;;;;;;;31.17;17.10;;;;;;;3.87;78.33;100821.28;4969962;28;20084;-50
2022/03/22 03:03:27;;;;;;;34.33;19.75;;;;;;;3.82;73.09;100811.16;4965780;28;20027;-50
2022/03/22 03:05:53;;;;;;;38.78;18.42;;;;;;;3.78;73.89;100817.75;4970263;28;20042;-52
2022/03/22 03:08:18;;;;;;;33.15;18.48;;;;;;;3.51;71.81;100813.50;4966930;28;20151;-53
2022/03/22 03:10:45;;;;;;;34.50;18.15;;;;;;;3.32;73.25;100817.22;4965437;28;20637;-53
2022/03/22 03:13:11;;;;;;;32.90;18.85;;;;;;;3.30;71.77;100815.69;4966916;28;20436;-52
2022/03/22 03:15:36;;;;;;;31.55;16.70;;;;;;;3.33;71.82;100815.38;4962930;28;20126;-53
2022/03/22 03:18:01;;;;;;;33.15;15.93;;;;;;;3.24;71.22;100815.34;4969913;28;20050;-53
2022/03/22 03:20:28;;;;;;;31.88;17.67;;;;;;;3.53;72.08;100818.66;4969382;28;20054;-50
2022/03/22 03:22:53;;;;;;;32.83;18.02;;;;;;;3.68;70.89;100811.75;4968842;28;20041;-53
2022/03/22 03:25:19;;;;;;;36.50;17.90;;;;;;;3.33;70.24;100812.72;4969767;28;20038;-50
2022/03/22 03:27:44;;;;;;;33.67;16.77;;;;;;;3.44;71.37;100815.09;4969243;28;20057;-50
2022/03/22 03:30:10;;;;;;;34.85;16.90;;;;;;;3.29;70.99;100821.97;4952371;28;20039;-52
2022/03/22 03:32:35;;;;;;;33.00;16.77;;;;;;;3.08;72.52;100817.03;4963697;28;20462;-49
2022/03/22 03:35:01;;;;;;;31.33;18.10;;;;;;;2.79;74.49;100824.25;4965270;28;20438;-52
2022/03/22 03:37:32;;;;;;;34.47;17.83;;;;;;;2.80;73.56;100822.47;4957849;28;20030;-50
2022/03/22 03:39:58;;;;;;;31.77;17.85;;;;;;;3.46;72.17;100826.38;4977852;28;20043;-51
2022/03/22 03:42:23;;;;;;;26.88;14.18;;;;;;;3.18;69.57;100834.50;4968894;28;20501;-49
2022/03/22 03:47:34;;;;;;;34.70;16.38;;;;;;;3.12;69.43;100832.47;4968651;28;20401;-50
2022/03/22 03:50:01;;;;;;;28.35;15.20;;;;;;;3.28;73.99;100836.22;4959903;28;20027;-51
2022/03/22 03:52:28;;;;;;;33.10;16.20;;;;;;;3.22;72.12;100832.34;4965637;28;20055;-52
2022/03/22 03:54:54;;;;;;;26.92;15.60;;;;;;;2.95;70.10;100841.28;4967965;28;20484;-52
2022/03/22 03:57:20;;;;;;;30.80;16.75;;;;;;;2.73;72.70;100835.47;4962854;28;20046;-51
2022/03/22 03:59:45;;;;;;;27.67;16.20;;;;;;;2.57;73.61;100843.25;4953428;28;20047;-50
2022/03/22 04:02:11;;;;;;;32.90;16.70;;;;;;;2.42;73.64;100839.47;4960132;28;20558;-53
2022/03/22 04:04:37;;;;;;;36.90;16.60;;;;;;;2.63;74.41;100845.31;4969599;28;20456;-50
2022/03/22 04:07:03;;;;;;;31.65;16.63;;;;;;;2.45;74.10;100842.66;4968510;28;20081;-49
2022/03/22 04:09:29;;;;;;;28.45;16.40;;;;;;;2.29;73.06;100842.47;4962379;28;20043;-52
2022/03/22 04:11:54;;;;;;;37.40;19.58;;;;;;;2.90;73.01;100849.69;4968109;28;20042;-52
2022/03/22 04:14:19;;;;;;;36.70;18.83;;;;;;;3.30;70.63;100845.69;4961483;28;20038;-51
2022/03/22 04:16:46;;;;;;;31.88;17.02;;;;;;;3.48;71.13;100845.63;4962489;28;20043;-52
2022/03/22 04:19:11;;;;;;;31.88;16.70;;;;;;;2.88;72.63;100853.47;4967549;28;20053;-52
2022/03/22 04:21:37;;;;;;;35.13;17.60;;;;;;;2.41;75.07;100853.69;4962972;28;20046;-50
2022/03/22 04:24:07;;;;;;;35.88;18.67;;;;;;;1.92;76.21;100848.66;4973298;28;20635;-52
2022/03/22 04:26:34;;;;;;;31.10;17.13;;;;;;;1.82;77.03;100843.44;4968027;28;20552;-51
2022/03/22 04:34:27;;;;;;;35.05;16.83;;;;;;;2.52;74.96;100851.66;4962742;28;20030;-51
2022/03/22 04:36:55;;;;;;;37.03;18.67;;;;;;;2.35;74.06;100858.59;4966877;28;20035;-51
2022/03/22 04:39:24;;;;;;;32.65;17.73;;;;;;;2.29;75.23;100856.53;4968621;28;20150;-51
2022/03/22 04:41:50;;;;;;;33.95;17.85;;;;;;;2.04;75.25;100854.59;4962337;28;20054;-52
2022/03/22 04:44:16;;;;;;;33.55;17.10;;;;;;;1.92;76.27;100853.94;4961877;28;20385;-52
2022/03/22 04:46:42;;;;;;;34.35;17.98;;;;;;;1.66;78.91;100859.91;4967003;28;20101;-53
2022/03/22 04:49:08;;;;;;;34.45;17.88;;;;;;;1.81;78.56;100856.78;4968685;28;20504;-49
2022/03/22 04:57:02;;;;;;;32.38;18.58;;;;;;;2.14;80.85;100868.59;4961567;28;20181;-50
2022/03/22 04:59:28;;;;;;;34.03;17.83;;;;;;;1.86;76.98;100857.19;4964160;28;20450;-52
2022/03/22 05:01:53;;;;;;;32.67;17.77;;;;;;;1.77;78.63;100866.81;4967602;28;20068;-50
2022/03/22 05:04:19;;;;;;;37.80;18.80;;;;;;;1.84;79.43;100861.78;4961828;28;20070;-50
2022/03/22 05:06:44;;;;;;;38.63;19.33;;;;;;;1.70;78.36;100865.75;4961350;28;20047;-49
2022/03/22 05:09:13;;;;;;;33.78;18.40;;;;;;;1.72;78.93;100869.06;4959725;28;20027;-49
2022/03/22 05:11:38;;;;;;;36.50;18.55;;;;;;;2.03;80.61;100867.00;4956236;28;20070;-50
2022/03/22 05:14:04;;;;;;;36.55;18.35;;;;;;;1.95;82.03;100872.19;4966830;28;20125;-51
2022/03/22 05:16:33;;;;;;;33.67;19.17;;;;;;;2.14;80.32;100873.88;4956807;28;20098;-49
2022/03/22 05:18:58;;;;;;;40.33;19.17;;;;;;;2.17;80.31;100870.94;4961750;28;20134;-53
2022/03/22 05:21:24;;;;;;;34.78;18.90;;;;;;;2.40;80.75;100871.38;4957435;28;20102;-52
2022/03/22 05:23:50;;;;;;;34.70;18.58;;;;;;;2.02;76.70;100875.06;4963220;28;20040;-51
2022/03/22 05:26:15;;;;;;;34.60;19.60;;;;;;;1.74;78.75;100877.69;4960417;28;20573;-50
2022/03/22 05:28:41;;;;;;;31.65;18.05;;;;;;;1.93;84.21;100877.59;4967034;28;20122;-50
2022/03/22 05:31:08;;;;;;;32.83;18.95;;;;;;;1.87;80.38;100882.63;4966103;28;20051;-52
2022/03/22 05:33:34;;;;;;;36.85;18.25;;;;;;;1.85;79.89;100885.44;4963998;28;20446;-52
2022/03/22 05:36:00;;;;;;;35.42;18.10;;;;;;;1.90;78.81;100885.00;4959075;28;20051;-53
2022/03/22 05:38:25;;;;;;;36.35;18.20;;;;;;;1.88;78.13;100887.78;4971248;28;20031;-51
2022/03/22 05:40:51;;;;;;;44.03;20.00;;;;;;;1.81;78.34;100884.06;4971628;28;20387;-53
2022/03/22 05:43:17;;;;;;;30.83;17.95;;;;;;;1.70;82.33;100892.19;4965402;28;20369;-52
2022/03/22 05:45:48;;;;;;;34.78;18.25;;;;;;;2.48;83.06;100886.50;4970146;28;20045;-53
2022/03/22 05:48:20;;;;;;;33.25;19.58;;;;;;;2.74;77.15;100892.72;4961441;28;20647;-51
2022/03/22 05:50:45;;;;;;;37.70;20.23;;;;;;;2.76;75.06;100895.22;4968136;28;20071;-51
2022/03/22 05:53:12;;;;;;;36.10;19.05;;;;;;;2.66;74.96;100890.00;4971591;28;20037;-50
2022/03/22 05:55:37;;;;;;;39.33;20.10;;;;;;;2.65;75.20;100891.00;4965958;28;20382;-52
2022/03/22 05:58:03;;;;;;;43.58;20.27;;;;;;;2.70;75.03;100896.69;4966536;28;20477;-51
2022/03/22 06:00:29;;;;;;;39.35;19.10;;;;;;;2.42;75.18;100892.38;4967744;28;20385;-53
2022/03/22 06:02:54;;;;;;;37.42;19.83;;;;;;;2.97;73.60;100884.31;4960121;28;20367;-52
2022/03/22 06:05:19;;;;;;;40.80;18.40;;;;;;;3.87;70.90;100895.56;4962397;28;20482;-52
2022/03/22 06:07:45;;;;;;;37.92;19.50;;;;;;;5.62;65.42;100899.00;4957532;28;20035;-53
2022/03/22 06:10:12;;;;;;;34.92;18.50;;;;;;;6.90;59.34;100897.97;4964035;28;20030;-53
2022/03/22 06:12:53;;;;;;;29.67;17.30;;;;;;;8.21;54.30;100904.69;4964827;28;20050;-51
2022/03/22 06:15:20;;;;;;;38.05;18.92;;;;;;;7.26;57.10;100897.34;4964923;28;20027;-51
2022/03/22 06:17:52;;;;;;;33.65;19.67;;;;;;;8.52;53.50;100895.66;4967707;28;20033;-52
2022/03/22 06:20:23;;;;;;;34.70;18.88;;;;;;;8.98;51.38;100893.44;4964664;28;20416;-53
2022/03/22 06:22:48;;;;;;;37.45;18.98;;;;;;;10.33;48.18;100896.88;4959726;28;20023;-53
2022/03/22 06:25:14;;;;;;;33.03;18.80;;;;;;;10.44;47.31;100896.31;4971132;28;20077;-53
2022/03/22 06:27:40;;;;;;;37.95;20.67;;;;;;;10.45;47.04;100903.31;4970788;28;20381;-53
2022/03/22 06:30:06;;;;;;;34.70;21.02;;;;;;;11.12;45.41;100898.09;4982525;28;20035;-54
2022/03/22 06:32:51;;;;;;;38.33;22.00;;;;;;;10.90;45.74;100905.50;4970460;28;20434;-52
2022/03/22 06:35:18;;;;;;;48.33;22.33;;;;;;;12.12;43.55;100911.47;4955235;28;20653;-51
2022/03/22 06:37:44;;;;;;;37.90;21.73;;;;;;;12.04;43.45;100910.66;4960729;28;20059;-53
2022/03/22 06:40:10;;;;;;;45.80;24.23;;;;;;;11.62;43.90;100910.06;4964366;28;20081;-53
2022/03/22 06:42:36;;;;;;;47.78;25.48;;;;;;;12.55;42.06;100917.06;4970688;28;20031;-50
2022/03/22 06:45:03;;;;;;;49.42;27.27;;;;;;;13.04;41.05;100918.25;4964047;28;20031;-50
2022/03/22 06:47:29;;;;;;;44.35;24.98;;;;;;;12.13;42.34;100919.31;4970391;28;20030;-50
2022/03/22 06:49:54;;;;;;;46.50;25.42;;;;;;;11.35;44.17;100919.16;4959138;28;20465;-52
2022/03/22 06:52:19;;;;;;;45.00;25.65;;;;;;;12.54;41.64;100918.13;4963831;28;20089;-52
2022/03/22 06:54:45;;;;;;;51.10;26.08;;;;;;;12.16;42.83;100926.13;4970209;28;20027;-54
2022/03/22 06:57:10;;;;;;;42.80;25.48;;;;;;;12.75;41.83;100925.03;4964612;28;20035;-53
2022/03/22 06:59:36;;;;;;;47.30;25.00;;;;;;;12.42;42.80;100919.81;4965940;28;20560;-53
2022/03/22 07:02:01;;;;;;;53.22;26.67;;;;;;;11.84;44.08;100920.59;4962828;28;20050;-50
2022/03/22 07:04:27;;;;;;;54.92;27.50;;;;;;;11.97;43.92;100914.38;4968457;28;20023;-53
2022/03/22 07:06:53;;;;;;;53.95;27.17;;;;;;;11.66;44.32;100918.56;4961020;28;20042;-53
2022/03/22 07:09:18;;;;;;;62.20;26.67;;;;;;;11.01;45.64;100924.50;4964826;28;20109;-52
2022/03/22 07:11:50;;;;;;;54.00;28.38;;;;;;;10.52;46.80;100914.88;4958504;28;20035;-52
2022/03/22 07:14:24;;;;;;;54.88;26.98;;;;;;;11.29;46.11;100918.13;4964717;28;20035;-51
2022/03/22 07:16:50;;;;;;;65.50;28.30;;;;;;;11.46;45.07;100918.56;4967735;28;20141;-51
2022/03/22 07:19:20;;;;;;;60.05;29.60;;;;;;;11.08;46.56;100915.63;4965222;28;20121;-52
2022/03/22 07:21:46;;;;;;;54.95;29.55;;;;;;;10.98;46.95;100916.88;4963265;28;20042;-53
2022/03/22 07:24:12;;;;;;;69.38;28.73;;;;;;;10.91;47.83;100918.72;4961565;28;20023;-53
2022/03/22 07:26:38;;;;;;;49.10;27.75;;;;;;;10.75;47.82;100917.22;4969491;28;20409;-53
2022/03/22 07:29:03;;;;;;;51.35;27.98;;;;;;;11.41;46.91;100919.19;4968545;28;20034;-51
2022/03/22 07:31:29;;;;;;;60.47;28.92;;;;;;;11.47;46.30;100927.44;4967419;28;20039;-51
2022/03/22 07:33:55;;;;;;;55.90;28.50;;;;;;;11.20;46.83;100922.03;4958981;28;20115;-52
2022/03/22 07:36:20;;;;;;;54.20;29.05;;;;;;;11.04;47.16;100919.78;4968904;28;20390;-54
2022/03/22 07:38:47;;;;;;;52.47;30.25;;;;;;;11.52;46.85;100919.59;4962745;28;20050;-54
2022/03/22 07:41:13;;;;;;;59.20;30.33;;;;;;;11.37;46.54;100923.28;4968635;28;21525;-50
2022/03/22 07:43:40;;;;;;;51.50;31.20;;;;;;;11.96;46.09;100923.50;4969519;28;20046;-52
2022/03/22 07:46:05;;;;;;;63.50;31.48;;;;;;;11.87;45.51;100922.88;4965495;28;20043;-53
2022/03/22 07:48:31;;;;;;;57.33;30.23;;;;;;;11.84;45.64;100928.66;4964844;28;20027;-52
2022/03/22 07:53:43;;;;;;;57.33;28.60;;;;;;;11.91;45.62;100926.00;4959475;28;20045;-51
2022/03/22 07:56:08;;;;;;;52.35;26.20;;;;;;;12.26;45.53;100924.66;4965651;28;20045;-53
2022/03/22 07:58:33;;;;;;;51.15;25.02;;;;;;;12.34;45.71;100920.88;4966771;28;20030;-53
2022/03/22 08:00:59;;;;;;;51.10;25.73;;;;;;;12.83;44.80;100913.19;4961693;28;20094;-53
2022/03/22 08:03:26;;;;;;;44.20;25.15;;;;;;;13.10;44.38;100925.47;4967945;28;20420;-51
2022/03/22 08:05:52;;;;;;;42.60;24.38;;;;;;;13.15;44.19;100922.94;4962014;28;20490;-52
2022/03/22 08:08:17;;;;;;;48.17;23.88;;;;;;;13.58;43.94;100921.41;4961017;28;20050;-52
2022/03/22 08:10:44;;;;;;;48.65;24.00;;;;;;;13.12;44.75;100919.84;4947984;28;20053;-51
2022/03/22 08:13:10;;;;;;;40.38;23.35;;;;;;;13.41;43.41;100923.00;4965205;28;20031;-53
2022/03/22 08:15:35;;;;;;;41.92;23.70;;;;;;;13.59;44.01;100928.41;4956674;28;20710;-50
2022/03/22 08:18:01;;;;;;;39.00;22.15;;;;;;;13.53;43.20;100924.75;4962426;28;20027;-51
2022/03/22 08:20:27;;;;;;;44.35;23.65;;;;;;;13.91;42.86;100925.63;4961438;28;20096;-51
2022/03/22 08:22:59;;;;;;;40.75;23.05;;;;;;;14.19;42.97;100928.63;4973268;28;20508;-52
2022/03/22 08:25:36;;;;;;;42.35;22.27;;;;;;;14.22;42.19;100932.75;4963053;28;20074;-50
2022/03/22 08:28:02;;;;;;;40.83;24.27;;;;;;;14.32;41.77;100927.66;4968242;28;20068;-54
2022/03/22 08:30:28;;;;;;;42.83;23.08;;;;;;;13.95;42.87;100916.88;4966187;28;20047;-53
2022/03/22 08:32:55;;;;;;;42.35;23.15;;;;;;;13.92;42.61;100930.78;4966228;28;20370;-52
2022/03/22 08:35:21;;;;;;;41.28;23.15;;;;;;;14.51;40.72;100927.66;4963169;28;20114;-53
2022/03/22 08:37:46;;;;;;;39.28;21.55;;;;;;;13.72;41.97;100927.47;4961616;28;20030;-53
2022/03/22 08:40:13;;;;;;;39.63;22.42;;;;;;;13.82;40.56;100925.09;4968681;28;20023;-55
2022/03/22 08:42:43;;;;;;;39.75;22.38;;;;;;;13.80;40.50;100924.47;4968442;28;20113;-53
2022/03/22 08:45:11;;;;;;;46.60;22.52;;;;;;;14.33;40.22;100917.72;4961920;28;20117;-51
2022/03/22 08:47:36;;;;;;;42.97;23.20;;;;;;;13.70;40.42;100926.88;4959269;28;20065;-51
2022/03/22 08:50:05;;;;;;;41.13;23.98;;;;;;;14.16;39.07;100928.28;4967944;28;20027;-54
2022/03/22 08:52:32;;;;;;;39.63;23.25;;;;;;;14.41;38.84;100915.50;4962792;28;20498;-52
2022/03/22 08:54:57;;;;;;;38.22;23.23;;;;;;;14.58;39.34;100921.16;4963844;28;20031;-54
2022/03/22 08:57:23;;;;;;;45.72;22.40;;;;;;;15.98;38.13;100921.66;4964808;28;20114;-51
2022/03/22 08:59:48;;;;;;;37.20;22.38;;;;;;;15.38;37.95;100913.75;4967294;28;20042;-51
2022/03/22 09:02:14;;;;;;;48.05;23.35;;;;;;;15.64;37.87;100913.28;4962446;28;20049;-53
2022/03/22 09:07:23;;;;;;;38.47;22.40;;;;;;;15.30;36.98;100918.44;4961132;28;20045;-52
2022/03/22 09:09:48;;;;;;;39.03;22.85;;;;;;;15.13;36.85;100911.25;4961899;28;20444;-53
2022/03/22 09:12:14;;;;;;;40.55;22.13;;;;;;;16.04;36.16;100912.59;4966613;28;20043;-51
2022/03/22 09:14:39;;;;;;;42.97;22.88;;;;;;;16.01;36.40;100914.97;4967659;28;20041;-53
2022/03/22 09:17:06;;;;;;;38.55;22.83;;;;;;;15.45;36.51;100903.63;4967280;28;20046;-53
2022/03/22 09:19:34;;;;;;;35.95;22.20;;;;;;;15.78;36.12;100915.81;4967811;28;20058;-53
2022/03/22 09:22:00;;;;;;;40.72;22.73;;;;;;;15.93;36.97;100913.44;4967392;28;20412;-53
2022/03/22 09:24:25;;;;;;;38.50;21.92;;;;;;;16.26;36.12;100903.84;4963462;28;20026;-53
2022/03/22 09:26:51;;;;;;;40.92;22.98;;;;;;;16.38;36.39;100907.34;4961359;28;20035;-54
2022/03/22 09:29:16;;;;;;;42.33;22.95;;;;;;;16.92;35.96;100902.44;4960638;28;20408;-53
2022/03/22 09:31:42;;;;;;;49.38;22.95;;;;;;;16.61;36.00;100901.84;4967178;28;20093;-54
2022/03/22 09:34:08;;;;;;;40.45;23.13;;;;;;;16.53;36.36;100896.81;4964124;28;20478;-54
2022/03/22 09:36:34;;;;;;;46.05;23.08;;;;;;;17.26;35.03;100894.34;4962160;28;20042;-52
2022/03/22 09:38:59;;;;;;;42.33;23.42;;;;;;;16.31;36.15;100896.66;4966102;28;20031;-54
2022/03/22 09:41:26;;;;;;;50.80;22.40;;;;;;;16.34;37.91;100900.75;4963377;28;20050;-53
2022/03/22 09:43:52;;;;;;;42.00;22.25;;;;;;;16.76;37.09;100901.31;4943729;28;20788;-53
2022/03/22 09:46:22;;;;;;;51.92;22.77;;;;;;;16.85;37.31;100898.22;4961950;28;20043;-51
2022/03/22 09:48:47;;;;;;;49.17;23.38;;;;;;;16.61;36.76;100893.72;4967405;28;20030;-53
2022/03/22 09:53:57;;;;;;;58.95;22.20;;;;;;;17.23;35.44;100898.38;4957115;28;20077;-54
2022/03/22 09:56:25;;;;;;;59.75;22.25;;;;;;;17.36;35.47;100891.81;4962405;28;20468;-51
2022/03/22 09:58:51;;;;;;;64.68;22.67;;;;;;;17.92;35.17;100885.56;4968114;28;20030;-53
2022/03/22 10:01:17;;;;;;;73.05;22.50;;;;;;;18.22;33.92;100880.56;4966722;28;20042;-52
2022/03/22 10:03:42;;;;;;;69.45;22.65;;;;;;;18.39;33.74;100882.38;4962740;28;20034;-53
2022/03/22 10:06:08;;;;;;;51.90;22.38;;;;;;;18.92;32.97;100881.59;4966354;28;20088;-53
2022/03/22 10:08:36;;;;;;;43.30;21.80;;;;;;;18.04;33.34;100881.66;4954270;28;20493;-53
2022/03/22 10:11:02;;;;;;;54.88;21.98;;;;;;;18.53;32.61;100875.47;4967250;28;20051;-52
2022/03/22 10:13:28;;;;;;;51.30;21.92;;;;;;;17.66;33.62;100871.66;4967875;28;20026;-54
2022/03/22 10:16:04;;;;;;;51.50;21.65;;;;;;;17.94;34.03;100869.88;4961072;28;20329;-53
2022/03/22 10:18:32;;;;;;;49.13;20.80;;;;;;;17.71;34.10;100870.91;4962418;28;20032;-51
2022/03/22 10:21:03;;;;;;;48.58;21.85;;;;;;;18.60;34.40;100867.13;4955267;28;20413;-54
2022/03/22 10:23:31;;;;;;;54.47;22.30;;;;;;;18.43;33.75;100862.59;4952596;28;20051;-54
2022/03/22 10:26:07;;;;;;;62.63;23.10;;;;;;;18.35;33.35;100864.97;4968919;28;20054;-52
2022/03/22 10:28:33;;;;;;;50.05;21.55;;;;;;;18.69;33.22;100855.53;4969258;28;20544;-54
2022/03/22 10:30:58;;;;;;;54.75;21.92;;;;;;;18.73;32.27;100858.56;4970757;28;20108;-54
2022/03/22 10:33:24;;;;;;;34.17;17.75;;;;;;;16.47;30.97;100857.19;4966635;28;20026;-54
2022/03/22 10:35:50;;;;;;;31.02;18.00;;;;;;;16.29;30.86;100849.25;4965988;28;20091;-52
2022/03/22 10:38:18;;;;;;;25.85;15.68;;;;;;;15.66;29.38;100859.81;4983379;28;20019;-54
2022/03/22 10:40:44;;;;;;;28.25;16.75;;;;;;;15.74;29.35;100853.25;4967301;28;20081;-54
2022/03/22 10:43:18;;;;;;;26.98;16.65;;;;;;;16.21;29.55;100844.25;4964020;28;20034;-54
2022/03/22 10:45:56;;;;;;;26.92;16.10;;;;;;;16.09;29.67;100850.50;4958184;28;20477;-52
2022/03/22 10:48:24;;;;;;;28.70;16.30;;;;;;;15.93;29.02;100852.06;4969122;28;20038;-54
2022/03/22 10:50:50;;;;;;;26.95;16.58;;;;;;;15.55;29.71;100844.47;4970131;28;20050;-52
2022/03/22 10:53:16;;;;;;;32.30;16.50;;;;;;;15.66;29.69;100835.50;4970501;28;20027;-54
2022/03/22 10:55:42;;;;;;;26.73;16.33;;;;;;;15.58;29.74;100837.75;4970123;28;20046;-52
2022/03/22 10:58:08;;;;;;;24.95;15.93;;;;;;;15.92;29.36;100841.47;4964665;28;20110;-54
2022/03/22 11:00:33;;;;;;;27.05;16.17;;;;;;;16.29;28.63;100838.44;4961799;28;20047;-53
2022/03/22 11:02:58;;;;;;;25.15;15.32;;;;;;;16.05;29.53;100840.38;4964298;28;20063;-53
2022/03/22 11:05:25;;;;;;;27.02;16.02;;;;;;;16.17;28.74;100831.19;4952321;28;20497;-54
2022/03/22 11:07:51;;;;;;;26.63;15.88;;;;;;;16.43;28.30;100828.97;4960902;28;20026;-53
2022/03/22 11:10:18;;;;;;;27.33;14.95;;;;;;;15.86;28.28;100839.75;4967678;28;20027;-53
2022/03/22 11:12:44;;;;;;;26.65;15.82;;;;;;;15.23;29.52;100835.88;4966910;28;20031;-53
2022/03/22 11:15:09;;;;;;;27.13;16.23;;;;;;;15.62;29.23;100828.09;4964324;28;20109;-54
2022/03/22 11:17:35;;;;;;;34.03;16.35;;;;;;;15.78;29.54;100830.13;4952067;28;20563;-54
2022/03/22 11:20:06;;;;;;;30.60;16.48;;;;;;;15.31;29.98;100824.72;4965127;28;20058;-51
2022/03/22 11:22:32;;;;;;;29.95;15.55;;;;;;;15.61;29.21;100827.28;4964994;28;20058;-53
2022/03/22 11:25:08;;;;;;;28.75;16.50;;;;;;;15.51;29.63;100821.66;4966127;28;20503;-51
2022/03/22 11:27:35;;;;;;;30.95;17.05;;;;;;;15.23;29.69;100812.38;4968141;28;20054;-53
2022/03/22 11:30:01;;;;;;;23.75;15.68;;;;;;;15.00;29.58;100825.84;4959613;28;20027;-55
2022/03/22 11:35:14;;;;;;;25.20;14.05;;;;;;;15.76;29.91;100812.50;4959435;28;20050;-52
2022/03/22 11:37:40;;;;;;;28.70;15.50;;;;;;;15.69;28.88;100799.91;4968138;28;20428;-53
2022/03/22 11:43:00;;;;;;;29.13;15.27;;;;;;;15.50;28.42;100792.97;4956702;28;20049;-53